Umea Robacksdalen, Sweden

4:33 PM CEST on October 22, 2014 (GMT +0200)
Mariedal | Change Station
CLOSE
Current Station
Personal Weather Station
Location: Umeå, VäSTERBOTTEN
Elevation: 125 ft
Nearby Weather Stations

Elev 125 ft 63.85 °N, 20.31 °E | Updated 6 seconds ago

Partly Cloudy
Partly Cloudy
27.7 °F
Feels Like 28 °F
N
0.0
Wind Variable Wind from North
Gusts 0.0 mph

Today
High -- | Low -- °F
--% Chance of Precip.
Yesterday
High -- | Low -- °F
Precip. -- in
7:48 AM 4:57 PM
Waning Crescent, 2% visible
Pressure 30.30 in
Visibility 6.2 miles
Clouds Few 2600 ft
Windchill 28 °F
Dew Point 18 °F
Humidity 68%
Rainfall 0.00 in
Snow Depth Not available.
UV 0 out of 12
Pollen Not available.
Air Quality Not available.
Flu Activity Not available.
METAR ESNU 221420Z 10005KT 9999 FEW026 M01/M07 Q1026 R14/09//95

More Conditions Fewer Conditions

Pressure 30.30 in
Visibility 6.2 miles
Clouds Few 2600 ft
Windchill 28 °F
Dew Point 18 °F
Humidity 68%
Rainfall 0.00 in
Snow Depth Not available.
UV 0 out of 12
Pollen Not available.
Air Quality Not available.
Flu Activity Not available.
METAR ESNU 221420Z 10005KT 9999 FEW026 M01/M07 Q1026 R14/09//95

More Conditions Fewer Conditions

10-Day Weather Forecast

Almanac

Astronomy

Oct. 22, 2014 Rise Set
Actual Time 7:48 AM CEST 4:57 PM CEST
Civil Twilight 6:59 AM CEST 5:46 PM CEST
Nautical Twilight 6:04 AM CEST 6:41 PM CEST
Astronomical Twilight 5:09 AM CEST 7:35 PM CEST
Moon 5:42 AM CEST 4:36 PM CEST
Length of Visible Light 10h 47m
Length of Day
9h 08m
Tomorrow will be 6m 22s shorter.
Waning Crescent, 2% of the Moon is Illuminated
Today
Waning Crescent
Oct 23
New
Oct 30
First Quarter
Nov 6
Full
Nov 14
Last Quarter

Today's Extremes

Country Highs Country Lows

Community

WunderPhotos

Upload Photos

1,763,935 photos uploaded!

WunderBlogs® & News

Nearby

Snow Depth

Not available.

Earthquake Activity

City Distance Mag. Time & Date
No recent earthquake activity has been reported nearby.
Minimum magnitude displayed is 2.5.

Coastal Water Temperatures

Place Temperature
No Stations Reporting

Nearby Weather Stations